createdAt,value
2023-04-07T00:00:02.382Z,11.80
2023-04-07T00:01:02.601Z,11.80
2023-04-07T00:02:02.896Z,12.00
2023-04-07T00:03:03.198Z,12.00
2023-04-07T00:04:03.198Z,12.00
2023-04-07T00:05:02.809Z,12.00
2023-04-07T00:06:02.609Z,12.00
2023-04-07T00:07:02.357Z,11.60
2023-04-07T00:08:02.375Z,11.60
2023-04-07T00:09:02.141Z,11.60
2023-04-07T00:10:02.579Z,11.60
2023-04-07T00:11:02.392Z,11.60
2023-04-07T00:12:02.847Z,11.60
2023-04-07T00:13:02.680Z,11.60
2023-04-07T00:14:02.522Z,11.60
2023-04-07T00:15:02.313Z,11.60
2023-04-07T00:16:02.892Z,11.60
2023-04-07T00:17:03.075Z,12.30
2023-04-07T00:18:02.610Z,12.30
2023-04-07T00:19:03.027Z,12.30
2023-04-07T00:20:02.553Z,12.30
2023-04-07T00:21:03.054Z,12.30
2023-04-07T00:22:02.685Z,12.20
2023-04-07T00:23:03.200Z,12.20
2023-04-07T00:24:03.181Z,12.20
2023-04-07T00:25:02.833Z,12.20
2023-04-07T00:26:03.141Z,12.20
2023-04-07T00:27:03.039Z,12.40
2023-04-07T00:28:03.439Z,12.40
2023-04-07T00:29:03.149Z,12.40
2023-04-07T00:30:03.627Z,12.40
2023-04-07T00:31:03.479Z,12.40
2023-04-07T00:32:02.518Z,12.60
2023-04-07T00:33:02.351Z,12.60
2023-04-07T00:34:02.346Z,12.60
2023-04-07T00:35:02.749Z,12.60
2023-04-07T00:36:02.479Z,12.60
2023-04-07T00:37:02.297Z,12.50
2023-04-07T00:38:02.903Z,12.50
2023-04-07T00:39:02.665Z,12.50
2023-04-07T00:40:02.501Z,12.50
2023-04-07T00:41:02.582Z,12.50
2023-04-07T00:42:03.014Z,13.90
2023-04-07T00:43:03.593Z,13.90
2023-04-07T00:44:03.377Z,13.90
2023-04-07T00:45:03.210Z,13.90
2023-04-07T00:46:03.126Z,13.90
2023-04-07T00:47:02.790Z,15.20
2023-04-07T00:48:03.092Z,15.20
2023-04-07T00:49:02.856Z,15.20
2023-04-07T00:50:02.910Z,15.20
2023-04-07T00:51:02.789Z,15.20
2023-04-07T00:52:02.340Z,16.30
2023-04-07T00:53:02.669Z,16.30
2023-04-07T00:54:02.347Z,16.30
2023-04-07T00:55:02.569Z,16.30
2023-04-07T00:56:02.524Z,16.30
2023-04-07T00:57:02.597Z,15.30
2023-04-07T00:58:02.534Z,15.30
2023-04-07T00:59:02.476Z,15.30
2023-04-07T01:00:02.871Z,15.30
2023-04-07T01:01:02.500Z,15.30
2023-04-07T01:02:03.223Z,14.00
2023-04-07T01:03:03.439Z,14.00
2023-04-07T01:04:03.198Z,14.00
2023-04-07T01:05:02.956Z,14.00
2023-04-07T01:06:03.504Z,14.00
2023-04-07T01:07:03.119Z,13.90
2023-04-07T01:08:02.919Z,13.90
2023-04-07T01:09:03.459Z,13.90
2023-04-07T01:10:03.301Z,13.90
2023-04-07T01:11:02.951Z,13.90
2023-04-07T01:12:02.511Z,13.60
2023-04-07T01:13:02.697Z,13.60
2023-04-07T01:14:02.367Z,13.60
2023-04-07T01:15:02.749Z,13.60
2023-04-07T01:16:02.696Z,13.60
2023-04-07T01:17:02.557Z,14.70
2023-04-07T01:18:02.416Z,14.70
2023-04-07T01:19:02.627Z,14.70
2023-04-07T01:20:02.362Z,14.70
2023-04-07T01:21:02.402Z,14.70
2023-04-07T01:22:03.064Z,14.20
2023-04-07T01:23:02.907Z,14.20
2023-04-07T01:24:02.848Z,14.20
2023-04-07T01:25:03.319Z,14.20
2023-04-07T01:26:03.244Z,14.20
2023-04-07T01:27:02.724Z,15.10
2023-04-07T01:28:02.580Z,15.10
2023-04-07T01:29:02.308Z,15.10
2023-04-07T01:30:02.312Z,15.10
2023-04-07T01:31:02.323Z,15.10
2023-04-07T01:32:02.610Z,14.10
2023-04-07T01:33:02.756Z,14.10
2023-04-07T01:34:02.615Z,14.10
2023-04-07T01:35:03.215Z,14.10
2023-04-07T01:36:02.921Z,14.10
2023-04-07T01:37:02.549Z,14.70
2023-04-07T01:38:02.532Z,14.70
2023-04-07T01:39:02.236Z,14.70
2023-04-07T01:40:02.240Z,14.70
2023-04-07T01:41:02.279Z,14.70
2023-04-07T01:42:02.862Z,14.80
2023-04-07T01:43:03.076Z,14.80
2023-04-07T01:44:02.784Z,14.80
2023-04-07T01:45:02.630Z,14.80
2023-04-07T01:46:02.580Z,14.80
2023-04-07T01:47:02.553Z,15.50
2023-04-07T01:48:02.290Z,15.50
2023-04-07T01:49:02.136Z,15.50
2023-04-07T01:50:02.209Z,15.50
2023-04-07T01:51:02.102Z,15.50
2023-04-07T01:52:02.733Z,14.30
2023-04-07T01:53:02.248Z,14.30
2023-04-07T01:54:02.787Z,14.30
2023-04-07T01:55:02.481Z,14.30
2023-04-07T01:56:02.324Z,14.30
2023-04-07T01:57:02.806Z,14.70
2023-04-07T01:58:03.001Z,14.70
2023-04-07T01:59:02.699Z,14.70
2023-04-07T02:00:03.019Z,14.70
2023-04-07T02:01:02.640Z,14.70
2023-04-07T02:02:03.119Z,14.10
2023-04-07T02:03:03.375Z,14.10
2023-04-07T02:04:02.759Z,14.10
2023-04-07T02:05:02.802Z,14.10
2023-04-07T02:06:03.256Z,14.10
2023-04-07T02:07:02.497Z,14.10
2023-04-07T02:08:02.359Z,14.10
2023-04-07T02:09:02.784Z,14.10
2023-04-07T02:10:02.374Z,14.10
2023-04-07T02:11:02.545Z,14.10
2023-04-07T02:12:02.928Z,14.30
2023-04-07T02:13:02.702Z,14.30
2023-04-07T02:14:03.064Z,14.30
2023-04-07T02:15:03.044Z,14.30
2023-04-07T02:16:02.667Z,14.30
2023-04-07T02:17:02.877Z,13.40
2023-04-07T02:18:02.700Z,13.40
2023-04-07T02:19:03.235Z,13.40
2023-04-07T02:20:03.128Z,13.40
2023-04-07T02:21:03.005Z,13.40
2023-04-07T02:22:02.624Z,12.60
2023-04-07T02:23:02.334Z,12.60
2023-04-07T02:24:02.242Z,12.60
2023-04-07T02:25:02.165Z,12.60
2023-04-07T02:26:02.700Z,12.60
2023-04-07T02:27:03.365Z,14.10
2023-04-07T02:28:02.940Z,14.10
2023-04-07T02:29:02.838Z,14.10
2023-04-07T02:30:02.767Z,14.10
2023-04-07T02:31:03.405Z,14.10
2023-04-07T02:32:02.806Z,12.80
2023-04-07T02:33:02.772Z,12.80
2023-04-07T02:34:02.449Z,12.80
2023-04-07T02:35:02.639Z,12.80
2023-04-07T02:36:02.547Z,12.80
2023-04-07T02:37:03.312Z,12.00
2023-04-07T02:38:03.090Z,12.00
2023-04-07T02:39:02.790Z,12.00
2023-04-07T02:40:02.622Z,12.00
2023-04-07T02:41:03.117Z,12.00
2023-04-07T02:42:02.859Z,12.30
2023-04-07T02:43:02.772Z,12.30
2023-04-07T02:44:02.662Z,12.30
2023-04-07T02:45:03.304Z,12.30
2023-04-07T02:46:02.974Z,12.30
2023-04-07T02:47:01.995Z,12.50
2023-04-07T02:48:02.586Z,12.50
2023-04-07T02:49:02.615Z,12.50
2023-04-07T02:50:02.294Z,12.50
2023-04-07T02:51:02.234Z,12.50
2023-04-07T02:52:02.513Z,14.50
2023-04-07T02:53:03.179Z,14.50
2023-04-07T02:54:02.791Z,14.50
2023-04-07T02:55:02.693Z,14.50
2023-04-07T02:56:02.620Z,14.50
2023-04-07T02:57:02.622Z,13.00
2023-04-07T02:58:03.083Z,13.00
2023-04-07T02:59:02.885Z,13.00
2023-04-07T03:00:02.760Z,13.00
2023-04-07T03:01:03.083Z,13.00
2023-04-07T03:02:02.542Z,14.80
2023-04-07T03:03:02.710Z,14.80
2023-04-07T03:04:02.260Z,14.80
2023-04-07T03:05:02.330Z,14.80
2023-04-07T03:06:02.196Z,14.80
2023-04-07T03:07:02.646Z,15.00
2023-04-07T03:08:02.447Z,15.00
2023-04-07T03:09:02.036Z,15.00
2023-04-07T03:10:02.339Z,15.00
2023-04-07T03:11:02.150Z,15.00
2023-04-07T03:12:01.642Z,14.20
2023-04-07T03:13:01.955Z,14.20
2023-04-07T03:14:01.991Z,14.20
2023-04-07T03:15:01.677Z,14.20
2023-04-07T03:16:01.606Z,14.20
2023-04-07T03:17:02.217Z,12.70
2023-04-07T03:18:02.181Z,12.70
2023-04-07T03:19:02.481Z,12.70
2023-04-07T03:20:02.317Z,12.70
2023-04-07T03:21:02.185Z,12.70
2023-04-07T03:22:01.890Z,12.60
2023-04-07T03:23:01.776Z,12.60
2023-04-07T03:24:01.727Z,12.60
2023-04-07T03:25:02.358Z,12.60
2023-04-07T03:26:01.985Z,12.60
2023-04-07T03:27:02.525Z,12.40
2023-04-07T03:28:02.398Z,12.40
2023-04-07T03:29:02.925Z,12.40
2023-04-07T03:30:02.545Z,12.40
2023-04-07T03:31:02.411Z,12.40
2023-04-07T03:32:02.105Z,11.90
2023-04-07T03:33:02.043Z,11.90
2023-04-07T03:34:01.972Z,11.90
2023-04-07T03:35:02.548Z,11.90
2023-04-07T03:36:02.230Z,11.90
2023-04-07T03:37:02.146Z,12.20
2023-04-07T03:38:02.057Z,12.20
2023-04-07T03:39:02.499Z,12.20
2023-04-07T03:40:02.151Z,12.20
2023-04-07T03:41:02.310Z,12.20
2023-04-07T03:42:02.197Z,13.40
2023-04-07T03:43:02.112Z,13.40
2023-04-07T03:44:02.026Z,13.40
2023-04-07T03:45:02.567Z,13.40
2023-04-07T03:46:02.370Z,13.40
2023-04-07T03:47:01.929Z,12.50
2023-04-07T03:48:01.895Z,12.50
2023-04-07T03:49:01.740Z,12.50
2023-04-07T03:50:01.611Z,12.50
2023-04-07T03:51:02.229Z,12.50
2023-04-07T03:52:01.929Z,12.60
2023-04-07T03:53:01.850Z,12.60
2023-04-07T03:54:01.782Z,12.60
2023-04-07T03:55:01.698Z,12.60
2023-04-07T03:56:01.618Z,12.60
2023-04-07T03:57:02.239Z,12.60
2023-04-07T03:58:02.151Z,12.60
2023-04-07T03:59:02.059Z,12.60
2023-04-07T04:00:02.138Z,12.60
2023-04-07T04:01:02.169Z,12.60
2023-04-07T04:02:02.781Z,13.30
2023-04-07T04:03:02.776Z,13.30
2023-04-07T04:04:02.994Z,13.30
2023-04-07T04:05:03.141Z,13.30
2023-04-07T04:06:02.829Z,13.30
2023-04-07T04:07:02.592Z,16.30
2023-04-07T04:08:02.334Z,16.30
2023-04-07T04:09:02.242Z,16.30
2023-04-07T04:10:02.845Z,16.30
2023-04-07T04:11:02.212Z,16.30
2023-04-07T04:12:02.763Z,18.20
2023-04-07T04:13:02.586Z,18.20
2023-04-07T04:14:03.096Z,18.20
2023-04-07T04:15:02.739Z,18.20
2023-04-07T04:16:02.735Z,18.20
2023-04-07T04:17:02.010Z,19.70
2023-04-07T04:18:02.487Z,19.70
2023-04-07T04:19:02.096Z,19.70
2023-04-07T04:20:02.022Z,19.70
2023-04-07T04:21:01.958Z,19.70
2023-04-07T04:22:02.562Z,22.20
2023-04-07T04:23:02.464Z,22.20
2023-04-07T04:24:02.539Z,22.20
2023-04-07T04:25:02.227Z,22.20
2023-04-07T04:26:02.562Z,22.20
2023-04-07T04:27:02.256Z,24.00
2023-04-07T04:28:02.175Z,24.00
2023-04-07T04:29:02.243Z,24.00
2023-04-07T04:30:02.087Z,24.00
2023-04-07T04:31:02.437Z,24.00
2023-04-07T04:32:02.321Z,25.50
2023-04-07T04:33:02.157Z,25.50
2023-04-07T04:34:01.812Z,25.50
2023-04-07T04:35:02.169Z,25.50
2023-04-07T04:36:02.013Z,25.50
2023-04-07T04:37:02.926Z,26.40
2023-04-07T04:38:02.809Z,26.40
2023-04-07T04:39:02.733Z,26.40
2023-04-07T04:40:03.102Z,26.40
2023-04-07T04:41:02.877Z,26.40
2023-04-07T04:42:02.296Z,25.20
2023-04-07T04:43:02.720Z,25.20
2023-04-07T04:44:02.301Z,25.20
2023-04-07T04:45:02.611Z,25.20
2023-04-07T04:46:02.496Z,25.20
2023-04-07T04:47:03.306Z,25.50
2023-04-07T04:48:03.093Z,25.50
2023-04-07T04:49:03.049Z,25.50
2023-04-07T04:50:02.904Z,25.50
2023-04-07T04:51:02.874Z,25.50
2023-04-07T04:52:02.647Z,26.80
2023-04-07T04:53:02.186Z,26.80
2023-04-07T04:54:02.160Z,26.80
2023-04-07T04:55:02.557Z,26.80
2023-04-07T04:56:02.086Z,26.80
2023-04-07T04:57:02.440Z,27.90
2023-04-07T04:58:02.215Z,27.90
2023-04-07T04:59:02.163Z,27.90
2023-04-07T05:00:02.740Z,27.90
2023-04-07T05:01:02.438Z,27.90
2023-04-07T05:02:03.337Z,28.10
2023-04-07T05:03:02.783Z,28.10
2023-04-07T05:04:03.149Z,28.10
2023-04-07T05:05:02.661Z,28.10
2023-04-07T05:06:03.121Z,28.10
2023-04-07T05:07:02.084Z,27.70
2023-04-07T05:08:02.071Z,27.70
2023-04-07T05:09:02.187Z,27.70
2023-04-07T05:10:02.428Z,27.70
2023-04-07T05:11:02.713Z,27.70
2023-04-07T05:12:02.842Z,27.50
2023-04-07T05:13:02.495Z,27.50
2023-04-07T05:14:02.778Z,27.50
2023-04-07T05:15:02.715Z,27.50
2023-04-07T05:16:02.309Z,27.50
2023-04-07T05:17:02.640Z,27.60
2023-04-07T05:18:02.444Z,27.60
2023-04-07T05:19:02.910Z,27.60
2023-04-07T05:20:02.772Z,27.60
2023-04-07T05:21:02.846Z,27.60
2023-04-07T05:22:02.487Z,28.30
2023-04-07T05:23:02.542Z,28.30
2023-04-07T05:24:02.399Z,28.30
2023-04-07T05:25:02.440Z,28.30
2023-04-07T05:26:02.129Z,28.30
2023-04-07T05:27:02.415Z,28.20
2023-04-07T05:28:02.520Z,28.20
2023-04-07T05:29:02.607Z,28.20
2023-04-07T05:30:02.164Z,28.20
2023-04-07T05:31:02.472Z,28.20
2023-04-07T05:32:02.641Z,27.60
2023-04-07T05:33:02.739Z,27.60
2023-04-07T05:34:03.008Z,27.60
2023-04-07T05:35:02.744Z,27.60
2023-04-07T05:36:03.030Z,27.60
2023-04-07T05:37:02.939Z,28.20
2023-04-07T05:38:02.965Z,28.20
2023-04-07T05:39:02.671Z,28.20
2023-04-07T05:40:03.044Z,28.20
2023-04-07T05:41:03.244Z,28.20
2023-04-07T05:42:02.118Z,28.30
2023-04-07T05:43:02.395Z,28.30
2023-04-07T05:44:02.519Z,28.30
2023-04-07T05:45:02.313Z,28.30
2023-04-07T05:46:02.387Z,28.30
2023-04-07T05:47:02.337Z,29.30
2023-04-07T05:48:02.427Z,29.30
2023-04-07T05:49:13.279Z,29.30
2023-04-07T05:50:02.652Z,29.30
2023-04-07T05:51:02.709Z,29.30
2023-04-07T05:52:02.695Z,30.30
2023-04-07T05:53:02.911Z,30.30
2023-04-07T05:54:02.617Z,30.30
2023-04-07T05:55:03.002Z,30.30
2023-04-07T05:56:03.067Z,30.30
2023-04-07T05:57:02.226Z,28.80
2023-04-07T05:58:02.457Z,28.80
2023-04-07T05:59:02.270Z,28.80
2023-04-07T06:00:02.460Z,28.80
2023-04-07T06:01:02.197Z,28.80
2023-04-07T06:02:03.372Z,29.80
2023-04-07T06:03:03.252Z,29.80
2023-04-07T06:04:02.845Z,29.80
2023-04-07T06:05:03.432Z,29.80
2023-04-07T06:06:02.931Z,29.80
2023-04-07T06:07:02.904Z,29.60
2023-04-07T06:08:03.342Z,29.60
2023-04-07T06:09:03.403Z,29.60
2023-04-07T06:10:02.994Z,29.60
2023-04-07T06:11:02.914Z,29.60
2023-04-07T06:12:03.258Z,28.20
2023-04-07T06:13:03.411Z,28.20
2023-04-07T06:14:03.239Z,28.20
2023-04-07T06:15:03.228Z,28.20
2023-04-07T06:16:03.317Z,28.20
2023-04-07T06:17:02.578Z,27.20
2023-04-07T06:18:02.743Z,27.20
2023-04-07T06:19:02.805Z,27.20
2023-04-07T06:20:02.802Z,27.20
2023-04-07T06:21:02.294Z,27.20
2023-04-07T06:22:03.058Z,28.60
2023-04-07T06:23:02.936Z,28.60
2023-04-07T06:24:03.368Z,28.60
2023-04-07T06:25:03.354Z,28.60
2023-04-07T06:26:03.400Z,28.60
2023-04-07T06:27:02.764Z,27.30
2023-04-07T06:28:02.688Z,27.30
2023-04-07T06:29:02.728Z,27.30
2023-04-07T06:30:02.814Z,27.30
2023-04-07T06:31:03.143Z,27.30
2023-04-07T06:32:03.174Z,26.30
2023-04-07T06:33:03.325Z,26.30
2023-04-07T06:34:03.284Z,26.30
2023-04-07T06:35:02.980Z,26.30
2023-04-07T06:36:02.967Z,26.30
2023-04-07T06:37:02.718Z,24.70
2023-04-07T06:38:03.053Z,24.70
2023-04-07T06:39:02.929Z,24.70
2023-04-07T06:40:02.884Z,24.70
2023-04-07T06:41:02.686Z,24.70
2023-04-07T06:42:02.957Z,23.90
2023-04-07T06:43:02.662Z,23.90
2023-04-07T06:44:03.143Z,23.90
2023-04-07T06:45:03.121Z,23.90
2023-04-07T06:46:02.833Z,23.90
2023-04-07T06:47:03.334Z,23.50
2023-04-07T06:48:03.490Z,23.50
2023-04-07T06:49:03.436Z,23.50
2023-04-07T06:50:03.604Z,23.50
2023-04-07T06:51:03.429Z,23.50
2023-04-07T06:52:03.161Z,23.10
2023-04-07T06:53:03.426Z,23.10
2023-04-07T06:54:03.036Z,23.10
2023-04-07T06:55:03.147Z,23.10
2023-04-07T06:56:02.920Z,23.10
2023-04-07T06:57:02.725Z,21.60
2023-04-07T06:58:02.438Z,21.60
2023-04-07T06:59:02.535Z,21.60
2023-04-07T07:00:02.450Z,21.60
2023-04-07T07:01:02.894Z,21.60
2023-04-07T07:02:02.841Z,21.10
2023-04-07T07:03:02.934Z,21.10
2023-04-07T07:04:02.699Z,21.10
2023-04-07T07:05:02.498Z,21.10
2023-04-07T07:06:02.424Z,21.10
2023-04-07T07:07:03.100Z,19.10
2023-04-07T07:08:03.434Z,19.10
2023-04-07T07:09:03.637Z,19.10
2023-04-07T07:10:03.018Z,19.10
2023-04-07T07:11:03.062Z,19.10
2023-04-07T07:12:04.332Z,20.20
2023-04-07T07:13:02.689Z,20.20
2023-04-07T07:14:02.727Z,20.20
2023-04-07T07:15:02.482Z,20.20
2023-04-07T07:16:03.071Z,20.20
2023-04-07T07:17:02.845Z,19.10
2023-04-07T07:18:02.807Z,19.10
2023-04-07T07:19:02.417Z,19.10
2023-04-07T07:20:02.989Z,19.10
2023-04-07T07:21:02.769Z,19.10
2023-04-07T07:22:03.326Z,16.70
2023-04-07T07:23:03.454Z,16.70
2023-04-07T07:24:03.547Z,16.70
2023-04-07T07:25:03.325Z,16.70
2023-04-07T07:26:03.532Z,16.70
2023-04-07T07:27:03.025Z,16.50
2023-04-07T07:28:02.665Z,16.50
2023-04-07T07:29:02.923Z,16.50
2023-04-07T07:30:03.026Z,16.50
2023-04-07T07:31:02.919Z,16.50
2023-04-07T07:32:03.738Z,16.50
2023-04-07T07:33:03.820Z,16.50
2023-04-07T07:34:03.321Z,16.50
2023-04-07T07:35:03.206Z,16.50
2023-04-07T07:36:03.552Z,16.50
2023-04-07T07:37:03.259Z,17.40
2023-04-07T07:38:02.975Z,17.40
2023-04-07T07:39:03.293Z,17.40
2023-04-07T07:40:02.780Z,17.40
2023-04-07T07:41:02.961Z,17.40
2023-04-07T07:42:03.507Z,13.90
2023-04-07T07:43:03.057Z,13.90
2023-04-07T07:44:03.340Z,13.90
2023-04-07T07:45:03.353Z,13.90
2023-04-07T07:46:02.976Z,13.90
2023-04-07T07:47:03.057Z,12.80
2023-04-07T07:48:03.010Z,12.80
2023-04-07T07:49:02.845Z,12.80
2023-04-07T07:50:02.867Z,12.80
2023-04-07T07:51:03.156Z,12.80
2023-04-07T07:52:03.387Z,13.40
2023-04-07T07:53:03.140Z,13.40
2023-04-07T07:54:03.395Z,13.40
2023-04-07T07:55:03.146Z,13.40
2023-04-07T07:56:03.398Z,13.40
2023-04-07T07:57:02.299Z,10.20
2023-04-07T07:58:02.372Z,10.20
2023-04-07T07:59:02.393Z,10.20
2023-04-07T08:00:02.407Z,10.20
2023-04-07T08:01:02.907Z,10.20
2023-04-07T08:02:02.987Z,10.40
2023-04-07T08:03:03.118Z,10.40
2023-04-07T08:04:03.312Z,10.40
2023-04-07T08:05:02.816Z,10.40
2023-04-07T08:06:02.957Z,10.40
2023-04-07T08:07:03.036Z,9.70
2023-04-07T08:08:03.699Z,9.70
2023-04-07T08:09:03.516Z,9.70
2023-04-07T08:10:03.399Z,9.70
2023-04-07T08:11:03.458Z,9.70
2023-04-07T08:12:02.559Z,8.70
2023-04-07T08:13:02.547Z,8.70
2023-04-07T08:14:02.609Z,8.70
2023-04-07T08:15:02.677Z,8.70
2023-04-07T08:16:02.627Z,8.70
2023-04-07T08:17:02.585Z,9.20
2023-04-07T08:18:02.849Z,9.20
2023-04-07T08:19:02.824Z,9.20
2023-04-07T08:20:02.935Z,9.20
2023-04-07T08:21:02.632Z,9.20
2023-04-07T08:22:02.676Z,8.00
2023-04-07T08:23:03.289Z,8.00
2023-04-07T08:24:02.952Z,8.00
2023-04-07T08:25:03.043Z,8.00
2023-04-07T08:26:03.021Z,8.00
2023-04-07T08:27:03.444Z,8.00
2023-04-07T08:28:03.469Z,8.00
2023-04-07T08:29:03.358Z,8.00
2023-04-07T08:30:03.367Z,8.00
2023-04-07T08:31:03.563Z,8.00
2023-04-07T08:32:02.536Z,8.10
2023-04-07T08:33:02.379Z,8.10
2023-04-07T08:34:02.590Z,8.10
2023-04-07T08:35:02.910Z,8.10
2023-04-07T08:36:02.438Z,8.10
2023-04-07T08:37:02.643Z,8.00
2023-04-07T08:38:02.693Z,8.00
2023-04-07T08:39:02.729Z,8.00
2023-04-07T08:40:02.785Z,8.00
2023-04-07T08:41:03.065Z,8.00
2023-04-07T08:42:03.143Z,7.70
2023-04-07T08:43:03.265Z,7.70
2023-04-07T08:44:03.293Z,7.70
2023-04-07T08:45:03.372Z,7.70
2023-04-07T08:46:03.483Z,7.70
2023-04-07T08:47:02.418Z,7.70
2023-04-07T08:48:02.445Z,7.70
2023-04-07T08:49:02.480Z,7.70
2023-04-07T08:50:02.522Z,7.70
2023-04-07T08:51:02.414Z,7.70
2023-04-07T08:52:04.111Z,7.10
2023-04-07T08:53:02.457Z,7.10
2023-04-07T08:54:02.545Z,7.10
2023-04-07T08:55:02.484Z,7.10
2023-04-07T08:56:03.015Z,7.10
2023-04-07T08:57:02.913Z,7.10
2023-04-07T08:58:02.822Z,7.10
2023-04-07T08:59:03.005Z,7.10
2023-04-07T09:00:03.309Z,7.10
2023-04-07T09:01:03.293Z,7.10
2023-04-07T09:02:03.131Z,7.30
2023-04-07T09:03:03.629Z,7.30
2023-04-07T09:04:03.690Z,7.30
2023-04-07T09:05:03.668Z,7.30
2023-04-07T09:06:03.468Z,7.30
2023-04-07T09:07:02.643Z,7.30
2023-04-07T09:08:02.641Z,7.30
2023-04-07T09:09:02.766Z,7.30
2023-04-07T09:10:02.704Z,7.30
2023-04-07T09:11:02.976Z,7.30
2023-04-07T09:12:03.135Z,8.00
2023-04-07T09:13:03.174Z,8.00
2023-04-07T09:14:03.311Z,8.00
2023-04-07T09:15:03.375Z,8.00
2023-04-07T09:16:03.022Z,8.00
2023-04-07T09:17:02.533Z,8.40
2023-04-07T09:18:02.479Z,8.40
2023-04-07T09:19:02.547Z,8.40
2023-04-07T09:20:02.860Z,8.40
2023-04-07T09:21:02.846Z,8.40
2023-04-07T09:22:02.960Z,8.70
2023-04-07T09:23:03.291Z,8.70
2023-04-07T09:24:03.147Z,8.70
2023-04-07T09:25:02.842Z,8.70
2023-04-07T09:26:02.853Z,8.70
2023-04-07T09:27:02.969Z,11.10
2023-04-07T09:28:02.985Z,11.10
2023-04-07T09:29:03.049Z,11.10
2023-04-07T09:30:03.021Z,11.10
2023-04-07T09:31:02.748Z,11.10
2023-04-07T09:32:02.533Z,8.90
2023-04-07T09:33:02.622Z,8.90
2023-04-07T09:34:02.734Z,8.90
2023-04-07T09:35:02.768Z,8.90
2023-04-07T09:36:02.386Z,8.90
2023-04-07T09:37:02.708Z,9.30
2023-04-07T09:38:02.772Z,9.30
2023-04-07T09:39:02.751Z,9.30
2023-04-07T09:40:02.701Z,9.30
2023-04-07T09:41:02.730Z,9.30
2023-04-07T09:42:03.261Z,8.90
2023-04-07T09:43:03.283Z,8.90
2023-04-07T09:44:03.072Z,8.90
2023-04-07T09:45:03.022Z,8.90
2023-04-07T09:46:03.028Z,8.90
2023-04-07T09:47:02.801Z,9.70
2023-04-07T09:48:02.915Z,9.70
2023-04-07T09:49:03.076Z,9.70
2023-04-07T09:50:02.713Z,9.70
2023-04-07T09:51:02.592Z,9.70
2023-04-07T09:52:02.948Z,9.50
2023-04-07T09:53:03.250Z,9.50
2023-04-07T09:54:02.641Z,9.50
2023-04-07T09:55:02.680Z,9.50
2023-04-07T09:56:02.867Z,9.50
2023-04-07T09:57:02.616Z,9.70
2023-04-07T09:58:02.602Z,9.70
2023-04-07T09:59:02.234Z,9.70
2023-04-07T10:00:02.260Z,9.70
2023-04-07T10:01:02.393Z,9.70
2023-04-07T10:02:03.228Z,9.60
2023-04-07T10:03:03.289Z,9.60
2023-04-07T10:04:03.225Z,9.60
2023-04-07T10:05:02.729Z,9.60
2023-04-07T10:06:02.828Z,9.60
2023-04-07T10:07:02.639Z,9.20
2023-04-07T10:08:02.578Z,9.20
2023-04-07T10:09:02.639Z,9.20
2023-04-07T10:10:02.578Z,9.20
2023-04-07T10:11:02.814Z,9.20
2023-04-07T10:12:02.753Z,8.70
2023-04-07T10:13:02.844Z,8.70
2023-04-07T10:14:02.512Z,8.70
2023-04-07T10:15:02.798Z,8.70
2023-04-07T10:16:02.894Z,8.70
2023-04-07T10:17:03.489Z,9.50
2023-04-07T10:18:03.435Z,9.50
2023-04-07T10:19:03.050Z,9.50
2023-04-07T10:20:03.597Z,9.50
2023-04-07T10:21:03.357Z,9.50
2023-04-07T10:22:03.115Z,9.90
2023-04-07T10:23:02.995Z,9.90
2023-04-07T10:24:03.160Z,9.90
2023-04-07T10:25:02.902Z,9.90
2023-04-07T10:26:02.939Z,9.90
2023-04-07T10:27:02.538Z,9.70
2023-04-07T10:28:02.585Z,9.70
2023-04-07T10:29:02.226Z,9.70
2023-04-07T10:30:02.228Z,9.70
2023-04-07T10:31:02.247Z,9.70
2023-04-07T10:32:03.014Z,10.30
2023-04-07T10:33:02.731Z,10.30
2023-04-07T10:34:03.040Z,10.30
2023-04-07T10:35:03.104Z,10.30
2023-04-07T10:36:03.000Z,10.30
2023-04-07T10:37:02.624Z,9.60
2023-04-07T10:38:02.454Z,9.60
2023-04-07T10:39:02.218Z,9.60
2023-04-07T10:40:02.159Z,9.60
2023-04-07T10:41:02.576Z,9.60
2023-04-07T10:42:03.075Z,10.00
2023-04-07T10:43:02.670Z,10.00
2023-04-07T10:44:02.689Z,10.00
2023-04-07T10:45:02.834Z,10.00
2023-04-07T10:46:02.620Z,10.00
2023-04-07T10:47:01.966Z,10.40
2023-04-07T10:48:02.136Z,10.40
2023-04-07T10:49:02.038Z,10.40
2023-04-07T10:50:02.031Z,10.40
2023-04-07T10:51:02.140Z,10.40
2023-04-07T10:52:02.540Z,10.90
2023-04-07T10:53:03.082Z,10.90
2023-04-07T10:54:02.660Z,10.90
2023-04-07T10:55:02.772Z,10.90
2023-04-07T10:56:02.896Z,10.90
2023-04-07T10:57:02.734Z,9.90
2023-04-07T10:58:03.242Z,9.90
2023-04-07T10:59:02.866Z,9.90
2023-04-07T11:00:02.981Z,9.90
2023-04-07T11:01:03.153Z,9.90
2023-04-07T11:02:03.278Z,10.00
2023-04-07T11:03:02.566Z,10.00
2023-04-07T11:04:02.560Z,10.00
2023-04-07T11:05:02.337Z,10.00
2023-04-07T11:06:02.668Z,10.00
2023-04-07T11:07:02.682Z,10.10
2023-04-07T11:08:02.495Z,10.10
2023-04-07T11:09:02.436Z,10.10
2023-04-07T11:10:02.325Z,10.10
2023-04-07T11:11:02.475Z,10.10
2023-04-07T11:12:02.345Z,9.50
2023-04-07T11:13:02.374Z,9.50
2023-04-07T11:14:02.436Z,9.50
2023-04-07T11:15:02.517Z,9.50
2023-04-07T11:16:02.527Z,9.50
2023-04-07T11:17:02.527Z,7.80
2023-04-07T11:18:02.598Z,7.80
2023-04-07T11:19:02.718Z,7.80
2023-04-07T11:20:02.872Z,7.80
2023-04-07T11:21:02.546Z,7.80
2023-04-07T11:22:02.455Z,8.80
2023-04-07T11:23:02.313Z,8.80
2023-04-07T11:24:02.281Z,8.80
2023-04-07T11:25:02.100Z,8.80
2023-04-07T11:26:02.204Z,8.80
2023-04-07T11:27:02.442Z,8.20
2023-04-07T11:28:01.910Z,8.20
2023-04-07T11:29:01.973Z,8.20
2023-04-07T11:30:02.020Z,8.20
2023-04-07T11:31:02.200Z,8.20
2023-04-07T11:32:02.110Z,8.90
2023-04-07T11:33:02.961Z,8.90
2023-04-07T11:34:02.454Z,8.90
2023-04-07T11:35:03.108Z,8.90
2023-04-07T11:36:03.139Z,8.90
2023-04-07T11:37:02.939Z,10.00
2023-04-07T11:38:03.091Z,10.00
2023-04-07T11:39:03.356Z,10.00
2023-04-07T11:40:03.006Z,10.00
2023-04-07T11:41:03.118Z,10.00
2023-04-07T11:42:03.153Z,9.80
2023-04-07T11:43:01.829Z,9.80
2023-04-07T11:44:01.954Z,9.80
2023-04-07T11:45:01.949Z,9.80
2023-04-07T11:46:02.255Z,9.80
2023-04-07T11:47:01.942Z,10.20
2023-04-07T11:48:02.811Z,10.20
2023-04-07T11:49:02.674Z,10.20
2023-04-07T11:50:02.446Z,10.20
2023-04-07T11:51:02.312Z,10.20
2023-04-07T11:52:02.420Z,10.60
2023-04-07T11:53:03.126Z,10.60
2023-04-07T11:54:03.042Z,10.60
2023-04-07T11:55:03.309Z,10.60
2023-04-07T11:56:03.021Z,10.60
2023-04-07T11:57:02.697Z,10.80
2023-04-07T11:58:02.205Z,10.80
2023-04-07T11:59:02.334Z,10.80
2023-04-07T12:00:02.425Z,10.80
2023-04-07T12:01:01.991Z,10.80
2023-04-07T12:02:02.278Z,11.90
2023-04-07T12:03:02.604Z,11.90
2023-04-07T12:04:03.273Z,11.90
2023-04-07T12:05:02.816Z,11.90
2023-04-07T12:06:02.854Z,11.90
2023-04-07T12:07:02.683Z,13.40
2023-04-07T12:08:02.029Z,13.40
2023-04-07T12:09:02.375Z,13.40
2023-04-07T12:10:02.482Z,13.40
2023-04-07T12:11:02.032Z,13.40
2023-04-07T12:12:01.982Z,12.00
2023-04-07T12:13:02.816Z,12.00
2023-04-07T12:14:02.324Z,12.00
2023-04-07T12:15:02.348Z,12.00
2023-04-07T12:16:02.582Z,12.00
2023-04-07T12:17:02.591Z,13.10
2023-04-07T12:18:03.212Z,13.10
2023-04-07T12:19:02.946Z,13.10
2023-04-07T12:20:02.972Z,13.10
2023-04-07T12:21:03.096Z,13.10
2023-04-07T12:22:03.293Z,14.00
2023-04-07T12:23:02.566Z,14.00
2023-04-07T12:24:02.402Z,14.00
2023-04-07T12:25:02.503Z,14.00
2023-04-07T12:26:02.273Z,14.00
2023-04-07T12:27:02.227Z,13.50
2023-04-07T12:28:02.863Z,13.50
2023-04-07T12:29:02.987Z,13.50
2023-04-07T12:30:02.516Z,13.50
2023-04-07T12:31:02.598Z,13.50
2023-04-07T12:32:02.793Z,13.90
2023-04-07T12:33:02.383Z,13.90
2023-04-07T12:34:02.080Z,13.90
2023-04-07T12:35:02.427Z,13.90
2023-04-07T12:36:02.110Z,13.90
2023-04-07T12:37:02.274Z,13.70
2023-04-07T12:38:02.588Z,13.70
2023-04-07T12:39:02.390Z,13.70
2023-04-07T12:40:02.358Z,13.70
2023-04-07T12:41:02.721Z,13.70
2023-04-07T12:42:02.792Z,13.40
2023-04-07T12:43:03.073Z,13.40
2023-04-07T12:44:03.177Z,13.40
2023-04-07T12:45:02.962Z,13.40
2023-04-07T12:46:02.656Z,13.40
2023-04-07T12:47:03.016Z,13.10
2023-04-07T12:48:02.268Z,13.10
2023-04-07T12:49:02.574Z,13.10
2023-04-07T12:50:02.504Z,13.10
2023-04-07T12:51:02.690Z,13.10
2023-04-07T12:52:02.750Z,13.90
2023-04-07T12:53:02.656Z,13.90
2023-04-07T12:54:02.769Z,13.90
2023-04-07T12:55:02.876Z,13.90
2023-04-07T12:56:03.027Z,13.90
2023-04-07T12:57:02.550Z,14.00
2023-04-07T12:58:02.849Z,14.00